Time;durP1;ratioP1;P1;durP2;ratioP2;P2;SDS_P1;SDS_P2;PMS_P1;PMS_P2;Temp;Humidity;BMP_temperature;BMP_pressure;BME280_temperature;BME280_humidity;BME280_pressure;Samples;Min_cycle;Max_cycle;Signal;HPM_P1;HPM_P2
2024/01/12 00:00:21;;;;;;;71.53;40.85;;;0.10;99.90;;;;;;5025098;28;20025;-72
2024/01/12 00:02:48;;;;;;;50.72;41.30;;;0.10;99.90;;;;;;5041351;28;20049;-74
2024/01/12 00:05:13;;;;;;;53.53;37.80;;;0.10;99.90;;;;;;5042393;28;20095;-72
2024/01/12 00:07:39;;;;;;;65.53;42.47;;;0.10;99.90;;;;;;5040248;28;20311;-74
2024/01/12 00:10:05;;;;;;;60.20;42.60;;;0.10;99.90;;;;;;5033104;28;20100;-72
2024/01/12 00:12:31;;;;;;;53.53;40.63;;;0.10;99.90;;;;;;5005293;28;20068;-72
2024/01/12 00:14:57;;;;;;;48.10;38.25;;;0.20;99.90;;;;;;5033900;28;20025;-72
2024/01/12 00:17:24;;;;;;;65.35;45.30;;;0.20;99.90;;;;;;5007270;28;20029;-73
2024/01/12 00:19:49;;;;;;;58.08;45.20;;;0.60;99.90;;;;;;5042172;28;20207;-72
2024/01/12 00:22:15;;;;;;;61.10;44.33;;;0.20;99.90;;;;;;5024681;28;20048;-73
2024/01/12 00:24:41;;;;;;;62.47;42.65;;;0.20;99.90;;;;;;5042148;28;20060;-72
2024/01/12 00:27:07;;;;;;;59.72;43.67;;;0.20;99.90;;;;;;5008356;28;20029;-73
2024/01/12 00:29:33;;;;;;;57.15;45.20;;;0.40;99.90;;;;;;5041052;28;20030;-73
2024/01/12 00:31:59;;;;;;;62.38;46.08;;;0.20;99.90;;;;;;5004839;28;20033;-73
2024/01/12 00:34:25;;;;;;;70.68;45.88;;;0.20;99.90;;;;;;5022719;28;20080;-72
2024/01/12 00:36:53;;;;;;;65.28;42.92;;;0.20;99.90;;;;;;5013963;28;20040;-73
2024/01/12 00:39:20;;;;;;;62.30;43.90;;;0.90;99.90;;;;;;5019557;28;20025;-73
2024/01/12 00:41:47;;;;;;;62.75;46.13;;;0.20;99.90;;;;;;5024702;28;20536;-72
2024/01/12 00:44:13;;;;;;;71.53;39.63;;;1.00;99.90;;;;;;5042158;28;20042;-72
2024/01/12 00:46:39;;;;;;;74.00;46.40;;;0.20;99.90;;;;;;5008191;28;20033;-72
2024/01/12 00:49:05;;;;;;;73.70;48.53;;;0.70;99.90;;;;;;5008326;28;20322;-72
2024/01/12 00:51:31;;;;;;;74.43;42.78;;;0.20;99.90;;;;;;5007938;28;20021;-74
2024/01/12 00:53:56;;;;;;;65.07;43.40;;;0.20;99.90;;;;;;4975659;28;20070;-72
2024/01/12 00:56:22;;;;;;;77.05;46.67;;;0.90;99.90;;;;;;5044862;28;20026;-72
2024/01/12 00:58:48;;;;;;;72.43;44.78;;;0.20;99.90;;;;;;5043599;28;20025;-73
2024/01/12 01:01:13;;;;;;;74.97;47.13;;;0.20;99.90;;;;;;5028057;28;20022;-72
2024/01/12 01:03:39;;;;;;;72.35;46.30;;;0.20;99.90;;;;;;5027742;28;20096;-73
2024/01/12 01:06:05;;;;;;;62.25;44.58;;;0.20;99.90;;;;;;4993128;28;20064;-73
2024/01/12 01:08:31;;;;;;;67.38;44.88;;;0.20;99.90;;;;;;5017044;28;20041;-73
2024/01/12 01:10:57;;;;;;;81.97;48.35;;;0.20;99.90;;;;;;5028854;28;20040;-72
2024/01/12 01:13:23;;;;;;;79.57;48.28;;;0.20;99.90;;;;;;5008236;28;20028;-73
2024/01/12 01:15:49;;;;;;;67.43;46.05;;;0.30;99.90;;;;;;5030730;28;20017;-72
2024/01/12 01:18:17;;;;;;;72.40;43.28;;;0.20;99.90;;;;;;5026357;28;20026;-72
2024/01/12 01:20:44;;;;;;;73.15;48.88;;;0.20;99.90;;;;;;5045235;28;20369;-73
2024/01/12 01:23:10;;;;;;;68.18;45.67;;;0.30;99.90;;;;;;5044185;28;20024;-73
2024/01/12 01:25:36;;;;;;;64.45;44.25;;;0.20;99.90;;;;;;5043873;28;20017;-73
2024/01/12 01:28:02;;;;;;;66.60;43.78;;;0.20;99.90;;;;;;5043505;28;20076;-73
2024/01/12 01:30:28;;;;;;;73.38;49.13;;;0.10;99.90;;;;;;5027745;28;20052;-72
2024/01/12 01:32:54;;;;;;;73.88;48.13;;;0.20;99.90;;;;;;5043883;28;20021;-73
2024/01/12 01:35:21;;;;;;;60.53;45.80;;;0.20;99.90;;;;;;5034167;28;20322;-73
2024/01/12 01:37:47;;;;;;;66.55;45.38;;;0.20;99.90;;;;;;5026155;28;20021;-73
2024/01/12 01:40:13;;;;;;;65.88;50.03;;;0.30;99.90;;;;;;5043867;28;20552;-73
2024/01/12 01:42:39;;;;;;;74.10;46.15;;;1.10;99.90;;;;;;5027194;28;20028;-73
2024/01/12 01:45:05;;;;;;;83.68;50.50;;;0.20;99.90;;;;;;5044424;28;20249;-72
2024/01/12 01:47:31;;;;;;;60.13;44.70;;;0.20;99.90;;;;;;5044294;28;20026;-73
2024/01/12 01:49:58;;;;;;;78.15;47.40;;;0.20;99.90;;;;;;5043147;28;20033;-72
2024/01/12 01:52:27;;;;;;;76.57;47.67;;;0.20;99.90;;;;;;5023678;28;20033;-72
2024/01/12 01:54:53;;;;;;;69.72;48.00;;;0.20;99.90;;;;;;5006797;28;20105;-72
2024/01/12 01:57:20;;;;;;;64.28;44.17;;;0.20;99.90;;;;;;5040434;28;20026;-74
2024/01/12 01:59:47;;;;;;;76.22;45.72;;;0.20;99.90;;;;;;5007216;28;20045;-72
2024/01/12 02:02:13;;;;;;;53.55;41.40;;;1.30;99.90;;;;;;4991312;28;20322;-73
2024/01/12 02:04:38;;;;;;;65.78;43.47;;;0.90;99.90;;;;;;5024435;28;20076;-73
2024/01/12 02:07:04;;;;;;;57.08;46.25;;;0.20;99.90;;;;;;5006554;28;20034;-72
2024/01/12 02:09:32;;;;;;;71.72;45.60;;;0.40;99.90;;;;;;5020128;28;20085;-73
2024/01/12 02:11:58;;;;;;;67.03;44.72;;;0.30;99.90;;;;;;5024496;28;20050;-73
2024/01/12 02:14:24;;;;;;;64.00;42.50;;;0.20;99.90;;;;;;5035600;28;20033;-73
2024/01/12 02:16:52;;;;;;;66.63;48.40;;;0.20;99.90;;;;;;5044206;28;20029;-72
2024/01/12 02:19:18;;;;;;;65.30;43.08;;;0.30;99.90;;;;;;5042662;28;20021;-74
2024/01/12 02:21:43;;;;;;;51.20;41.22;;;0.20;99.90;;;;;;5010456;28;20075;-73
2024/01/12 02:24:09;;;;;;;67.20;47.92;;;0.30;99.90;;;;;;5026262;28;20266;-72
2024/01/12 02:26:35;;;;;;;62.30;44.97;;;0.20;99.90;;;;;;5035731;28;20037;-72
2024/01/12 02:29:03;;;;;;;79.13;45.90;;;1.30;99.90;;;;;;5035650;28;20092;-72
2024/01/12 02:31:29;;;;;;;70.13;46.80;;;0.30;99.90;;;;;;5026502;28;20338;-73
2024/01/12 02:33:56;;;;;;;83.05;44.80;;;0.30;99.90;;;;;;5042730;28;20021;-73
2024/01/12 02:36:26;;;;;;;74.65;48.80;;;0.30;99.90;;;;;;4993404;28;20131;-72
2024/01/12 02:38:53;;;;;;;63.63;44.40;;;1.10;99.90;;;;;;5025908;28;20022;-72
2024/01/12 02:41:20;;;;;;;58.40;43.60;;;0.30;99.90;;;;;;5009936;28;20595;-73
2024/01/12 02:43:46;;;;;;;58.80;44.25;;;0.20;99.90;;;;;;5009816;28;20029;-73
2024/01/12 02:46:12;;;;;;;71.80;45.28;;;0.20;99.90;;;;;;5026185;28;20317;-72
2024/01/12 02:48:38;;;;;;;73.78;45.03;;;0.30;99.90;;;;;;5024600;28;20029;-73
2024/01/12 02:51:04;;;;;;;67.65;44.55;;;0.30;99.90;;;;;;5042270;28;20417;-72
2024/01/12 02:53:30;;;;;;;78.55;50.72;;;0.30;99.90;;;;;;5009779;28;20029;-72
2024/01/12 02:55:56;;;;;;;62.92;47.05;;;0.30;99.90;;;;;;5025665;28;20242;-72
2024/01/12 02:58:22;;;;;;;57.38;46.83;;;1.00;99.90;;;;;;5008738;28;20184;-72
2024/01/12 03:00:47;;;;;;;69.60;45.25;;;1.40;99.90;;;;;;5043442;28;20037;-72
2024/01/12 03:03:13;;;;;;;62.13;43.25;;;0.20;99.90;;;;;;5043444;28;20017;-74
2024/01/12 03:05:39;;;;;;;66.00;43.42;;;0.30;99.90;;;;;;5043327;28;20036;-73
2024/01/12 03:08:05;;;;;;;70.63;46.53;;;0.30;99.90;;;;;;5008179;28;20097;-72
2024/01/12 03:10:31;;;;;;;62.20;47.17;;;0.30;99.90;;;;;;5042226;28;20021;-73
2024/01/12 03:12:57;;;;;;;58.47;44.60;;;0.70;99.90;;;;;;5025690;28;20135;-72
2024/01/12 03:15:23;;;;;;;80.80;48.55;;;0.30;99.90;;;;;;5042173;28;20025;-72
2024/01/12 03:17:49;;;;;;;63.97;44.45;;;0.20;99.90;;;;;;5040437;28;20025;-72
2024/01/12 03:20:15;;;;;;;61.47;45.92;;;1.20;99.90;;;;;;5041275;28;20306;-72
2024/01/12 03:22:41;;;;;;;66.45;46.75;;;0.30;99.90;;;;;;5043340;28;20246;-72
2024/01/12 03:25:07;;;;;;;63.92;46.15;;;0.30;99.90;;;;;;5025405;28;20051;-74
2024/01/12 03:27:33;;;;;;;68.40;47.38;;;0.30;99.90;;;;;;5024348;28;20029;-73
2024/01/12 03:29:59;;;;;;;67.18;48.90;;;0.30;99.90;;;;;;5043097;28;20033;-73
2024/01/12 03:32:25;;;;;;;62.78;45.28;;;0.30;99.90;;;;;;5043028;28;20203;-72
2024/01/12 03:34:51;;;;;;;65.38;45.92;;;0.30;99.90;;;;;;5041572;28;20029;-73
2024/01/12 03:37:16;;;;;;;56.38;44.83;;;0.30;99.90;;;;;;5041761;28;20025;-71
2024/01/12 03:39:42;;;;;;;67.43;48.42;;;0.30;99.90;;;;;;5023681;28;20056;-73
2024/01/12 03:42:08;;;;;;;70.05;49.10;;;1.00;99.90;;;;;;5009195;28;20025;-72
2024/01/12 03:44:34;;;;;;;71.38;49.58;;;0.30;99.90;;;;;;5042710;28;20226;-73
2024/01/12 03:47:00;;;;;;;61.80;44.92;;;0.30;99.90;;;;;;5042930;28;20215;-73
2024/01/12 03:49:26;;;;;;;58.20;42.40;;;0.30;99.90;;;;;;5011748;28;20046;-72
2024/01/12 03:51:55;;;;;;;68.57;43.63;;;0.30;99.90;;;;;;5005457;28;20099;-72
2024/01/12 03:54:27;;;;;;;51.80;37.77;;;0.80;99.90;;;;;;5005355;28;20100;-73
2024/01/12 03:56:53;;;;;;;53.22;40.53;;;0.30;99.90;;;;;;5021572;28;20349;-72
2024/01/12 03:59:19;;;;;;;63.90;43.70;;;0.30;99.90;;;;;;5003547;28;20025;-72
2024/01/12 04:01:46;;;;;;;67.10;47.00;;;0.30;99.90;;;;;;5024850;28;20025;-72
2024/01/12 04:04:12;;;;;;;57.42;43.53;;;0.40;99.90;;;;;;5024570;28;20041;-72
2024/01/12 04:06:38;;;;;;;77.05;47.03;;;;;;;;;;5024966;28;20036;-72
2024/01/12 04:09:05;;;;;;;74.70;46.58;;;;;;;;;;5040004;28;20026;-72
2024/01/12 04:11:30;;;;;;;64.20;44.90;;;0.30;99.90;;;;;;5042968;28;20052;-71
2024/01/12 04:13:56;;;;;;;56.15;42.10;;;0.30;99.90;;;;;;5008491;28;20033;-71
2024/01/12 04:16:22;;;;;;;55.58;42.80;;;0.40;99.90;;;;;;5008561;28;20097;-73
2024/01/12 04:18:48;;;;;;;60.45;43.88;;;0.40;99.90;;;;;;5041113;28;20034;-73
2024/01/12 04:21:14;;;;;;;56.67;44.30;;;0.30;99.90;;;;;;5024768;28;20032;-71
2024/01/12 04:23:40;;;;;;;56.70;42.42;;;0.30;99.90;;;;;;5024815;28;20211;-72
2024/01/12 04:26:06;;;;;;;65.97;45.03;;;0.40;99.90;;;;;;5008322;28;20303;-72
2024/01/12 04:28:33;;;;;;;58.13;43.90;;;0.40;99.90;;;;;;5006982;28;20021;-72
2024/01/12 04:31:01;;;;;;;61.40;45.22;;;0.40;99.90;;;;;;5043251;28;20018;-72
2024/01/12 04:33:27;;;;;;;62.30;46.85;;;0.40;99.90;;;;;;5028241;28;20026;-72
2024/01/12 04:35:53;;;;;;;82.88;45.42;;;0.40;99.90;;;;;;5045992;28;20215;-73
2024/01/12 04:38:19;;;;;;;71.00;44.30;;;0.40;99.90;;;;;;5027014;28;20032;-72
2024/01/12 04:40:45;;;;;;;65.60;43.70;;;0.40;99.90;;;;;;5028535;28;20474;-73
2024/01/12 04:43:11;;;;;;;57.22;41.85;;;0.40;99.90;;;;;;5046109;28;20022;-72
2024/01/12 04:45:37;;;;;;;81.13;46.35;;;0.40;99.90;;;;;;5027990;28;20021;-74
2024/01/12 04:48:03;;;;;;;61.60;41.78;;;0.40;99.90;;;;;;5044502;28;20392;-72
2024/01/12 04:50:28;;;;;;;59.60;42.97;;;0.40;99.90;;;;;;5012057;28;20301;-72
2024/01/12 04:52:54;;;;;;;62.63;48.38;;;0.40;99.90;;;;;;5019367;28;20045;-72
2024/01/12 04:55:21;;;;;;;53.22;42.22;;;0.40;99.90;;;;;;5026034;28;20025;-73
2024/01/12 04:57:47;;;;;;;66.45;46.67;;;0.40;99.90;;;;;;4995079;28;20303;-73
2024/01/12 05:00:13;;;;;;;57.65;44.65;;;0.40;99.90;;;;;;5028382;28;20298;-72
2024/01/12 05:02:40;;;;;;;53.33;39.97;;;0.30;99.90;;;;;;5038946;28;20307;-72
2024/01/12 05:05:08;;;;;;;57.35;44.47;;;0.30;99.90;;;;;;5024748;28;20078;-72
2024/01/12 05:07:34;;;;;;;70.10;44.83;;;0.30;99.90;;;;;;5026446;28;20026;-73
2024/01/12 05:10:00;;;;;;;60.90;43.88;;;0.30;99.90;;;;;;5027970;28;20021;-72
2024/01/12 05:12:27;;;;;;;61.47;46.92;;;0.30;99.90;;;;;;5028249;28;20052;-72
2024/01/12 05:14:52;;;;;;;64.43;43.10;;;0.30;99.90;;;;;;5040925;28;20017;-73
2024/01/12 05:17:19;;;;;;;79.03;44.95;;;0.30;99.90;;;;;;5037602;28;20075;-73
2024/01/12 05:19:45;;;;;;;62.92;44.17;;;0.30;99.90;;;;;;5009887;28;20026;-72
2024/01/12 05:22:11;;;;;;;71.80;44.58;;;0.30;99.90;;;;;;5028033;28;20319;-73
2024/01/12 05:24:37;;;;;;;63.08;44.60;;;0.40;99.90;;;;;;5041386;28;20100;-75
2024/01/12 05:27:03;;;;;;;69.45;42.95;;;0.30;99.90;;;;;;5024131;28;20040;-71
2024/01/12 05:29:29;;;;;;;55.58;40.08;;;0.30;99.90;;;;;;5035646;28;20022;-75
2024/01/12 05:31:55;;;;;;;66.80;43.22;;;0.30;99.90;;;;;;5004792;28;20017;-72
2024/01/12 05:34:21;;;;;;;62.05;43.90;;;1.30;99.90;;;;;;5043569;28;20032;-72
2024/01/12 05:36:46;;;;;;;60.70;45.22;;;0.30;99.90;;;;;;5044550;28;20071;-71
2024/01/12 05:39:12;;;;;;;63.97;44.17;;;0.30;99.90;;;;;;5024670;28;20037;-72
2024/01/12 05:41:38;;;;;;;57.55;41.58;;;0.30;99.90;;;;;;5043629;28;20033;-72
2024/01/12 05:44:05;;;;;;;66.35;45.17;;;0.30;99.90;;;;;;5010953;28;20040;-73
2024/01/12 05:46:31;;;;;;;58.47;42.15;;;0.30;99.90;;;;;;5010139;28;20222;-72
2024/01/12 05:48:57;;;;;;;53.53;40.25;;;0.30;99.90;;;;;;5042701;28;20029;-71
2024/01/12 05:51:24;;;;;;;56.53;41.03;;;0.30;99.90;;;;;;5043252;28;20249;-72
2024/01/12 05:53:49;;;;;;;52.20;38.08;;;0.40;99.90;;;;;;5026961;28;20072;-72
2024/01/12 05:56:15;;;;;;;46.42;36.95;;;0.40;99.90;;;;;;5042962;28;20033;-71
2024/01/12 05:58:42;;;;;;;50.40;37.70;;;0.40;99.90;;;;;;5025418;28;20009;-73
2024/01/12 06:01:08;;;;;;;45.00;40.28;;;;;;;;;;5025398;28;20041;-73
2024/01/12 06:03:34;;;;;;;55.42;45.95;;;0.40;99.90;;;;;;5033921;28;20080;-72
2024/01/12 06:06:00;;;;;;;55.80;45.03;;;0.40;99.90;;;;;;5040110;28;20246;-72
2024/01/12 06:08:26;;;;;;;55.45;43.20;;;0.40;99.90;;;;;;5040275;28;20021;-71
2024/01/12 06:10:52;;;;;;;51.17;40.72;;;0.30;99.90;;;;;;5010073;28;20096;-71
2024/01/12 06:13:18;;;;;;;53.35;40.03;;;0.40;99.90;;;;;;5042642;28;20022;-75
2024/01/12 06:15:43;;;;;;;67.30;44.60;;;0.40;99.90;;;;;;5026262;28;20089;-73
2024/01/12 06:18:09;;;;;;;62.42;42.00;;;0.40;99.90;;;;;;5040324;28;20313;-72
2024/01/12 06:20:35;;;;;;;47.78;38.28;;;0.30;99.90;;;;;;5025922;28;20056;-72
2024/01/12 06:23:01;;;;;;;44.42;37.60;;;0.30;99.90;;;;;;5042547;28;20032;-72
2024/01/12 06:25:29;;;;;;;67.70;40.15;;;0.40;99.90;;;;;;5043685;28;20033;-72
2024/01/12 06:27:55;;;;;;;54.40;39.35;;;0.40;99.90;;;;;;5005027;28;20226;-72
2024/01/12 06:30:21;;;;;;;62.50;43.78;;;0.40;99.90;;;;;;5041754;28;20037;-72
2024/01/12 06:32:47;;;;;;;46.05;37.22;;;0.40;99.90;;;;;;5030440;28;20014;-72
2024/01/12 06:35:13;;;;;;;43.58;37.38;;;0.80;99.90;;;;;;5028269;28;20299;-71
2024/01/12 06:37:39;;;;;;;56.60;38.10;;;0.40;99.90;;;;;;5024793;28;20291;-72
2024/01/12 06:40:07;;;;;;;49.58;36.35;;;0.40;99.90;;;;;;5025586;28;20057;-72
2024/01/12 06:42:32;;;;;;;54.63;39.05;;;0.40;99.90;;;;;;5032966;28;20052;-71
2024/01/12 06:44:59;;;;;;;47.70;42.10;;;0.40;99.90;;;;;;5024022;28;20038;-72
2024/01/12 06:47:25;;;;;;;40.80;34.72;;;0.40;99.90;;;;;;5040537;28;20048;-71
2024/01/12 06:49:51;;;;;;;54.53;39.10;;;0.50;99.90;;;;;;5043899;28;20040;-71
2024/01/12 06:52:17;;;;;;;45.10;37.70;;;0.40;99.90;;;;;;5009980;28;20025;-72
2024/01/12 06:54:43;;;;;;;53.92;40.25;;;0.40;99.90;;;;;;5009179;28;20018;-71
2024/01/12 06:57:09;;;;;;;46.20;37.80;;;0.40;99.90;;;;;;5043739;28;20025;-72
2024/01/12 06:59:35;;;;;;;55.95;36.58;;;0.80;99.90;;;;;;5024166;28;20029;-71
2024/01/12 07:02:01;;;;;;;58.40;38.75;;;0.40;99.90;;;;;;5025957;28;20088;-71
2024/01/12 07:04:26;;;;;;;60.38;38.70;;;1.40;99.90;;;;;;5043201;28;20045;-71
2024/01/12 07:06:52;;;;;;;57.42;41.78;;;1.40;99.90;;;;;;5025840;28;20033;-71
2024/01/12 07:09:21;;;;;;;59.05;41.38;;;0.40;99.90;;;;;;5041782;28;20037;-72
2024/01/12 07:11:48;;;;;;;53.53;37.15;;;0.40;99.90;;;;;;5043149;28;20041;-72
2024/01/12 07:14:14;;;;;;;65.18;41.03;;;0.40;99.90;;;;;;5008836;28;20063;-72
2024/01/12 07:16:41;;;;;;;70.28;49.33;;;0.40;99.90;;;;;;5041764;28;20048;-72
2024/01/12 07:19:07;;;;;;;50.25;40.28;;;1.20;99.90;;;;;;5024342;28;20076;-71
2024/01/12 07:21:34;;;;;;;53.90;39.72;;;0.40;99.90;;;;;;5043047;28;20022;-71
2024/01/12 07:24:01;;;;;;;53.30;44.20;;;0.40;99.90;;;;;;5041821;28;20036;-71
2024/01/12 07:26:28;;;;;;;51.95;38.72;;;0.40;99.90;;;;;;5025115;28;20034;-73
2024/01/12 07:28:54;;;;;;;51.20;39.10;;;0.40;99.90;;;;;;5040551;28;20022;-72
2024/01/12 07:31:20;;;;;;;50.70;38.15;;;0.50;99.90;;;;;;5042296;28;20013;-71
2024/01/12 07:33:46;;;;;;;44.80;36.95;;;0.50;99.90;;;;;;5041066;28;20028;-71
2024/01/12 07:36:12;;;;;;;42.92;35.03;;;0.60;99.90;;;;;;5024688;28;20036;-71
2024/01/12 07:38:37;;;;;;;44.33;33.13;;;0.60;99.90;;;;;;5022892;28;20303;-73
2024/01/12 07:41:03;;;;;;;47.83;36.25;;;0.50;99.90;;;;;;5008594;28;20044;-72
2024/01/12 07:43:32;;;;;;;41.88;33.30;;;0.60;99.90;;;;;;5040744;28;20041;-72
2024/01/12 07:45:59;;;;;;;44.88;33.03;;;0.50;99.90;;;;;;5023421;28;20040;-74
2024/01/12 07:48:24;;;;;;;52.45;35.00;;;0.50;99.90;;;;;;5039578;28;20036;-73
2024/01/12 07:50:51;;;;;;;40.47;30.48;;;0.60;99.90;;;;;;5024334;28;20053;-73
2024/01/12 07:53:17;;;;;;;45.53;31.77;;;0.60;99.90;;;;;;5040856;28;20330;-74
2024/01/12 07:55:43;;;;;;;33.75;29.48;;;0.70;99.90;;;;;;5034858;28;20018;-73
2024/01/12 07:58:09;;;;;;;42.80;29.48;;;1.60;99.90;;;;;;5038465;28;20093;-76
2024/01/12 08:00:35;;;;;;;31.95;26.48;;;0.60;99.90;;;;;;5016053;28;20025;-74
2024/01/12 08:03:02;;;;;;;35.95;26.45;;;0.70;99.90;;;;;;5024731;28;20021;-75
2024/01/12 08:05:31;;;;;;;29.80;23.30;;;0.70;99.90;;;;;;5041271;28;20136;-74
2024/01/12 08:07:56;;;;;;;31.85;24.73;;;0.70;99.90;;;;;;5023215;28;20022;-74
2024/01/12 08:10:22;;;;;;;29.42;25.02;;;0.70;99.90;;;;;;5041701;28;20076;-75
2024/01/12 08:12:49;;;;;;;23.95;21.33;;;1.70;99.90;;;;;;5041933;28;20033;-75
2024/01/12 08:15:15;;;;;;;32.75;22.60;;;;;;;;;;5024730;28;20029;-74
2024/01/12 08:17:41;;;;;;;33.88;23.63;;;0.80;99.90;;;;;;5039397;28;20773;-74
2024/01/12 08:20:08;;;;;;;26.02;22.05;;;0.90;99.90;;;;;;5040660;28;20101;-74
2024/01/12 08:22:33;;;;;;;27.98;21.50;;;0.80;99.90;;;;;;5007580;28;20056;-74
2024/01/12 08:25:00;;;;;;;31.38;23.45;;;0.90;99.90;;;;;;5008624;28;20029;-75
2024/01/12 08:27:26;;;;;;;29.63;24.52;;;0.80;99.90;;;;;;5039791;28;20021;-75
2024/01/12 08:29:53;;;;;;;22.52;18.60;;;0.90;99.90;;;;;;5042680;28;20053;-73
2024/01/12 08:32:18;;;;;;;38.03;20.90;;;0.80;99.90;;;;;;5024987;28;20022;-75
2024/01/12 08:34:44;;;;;;;23.67;20.70;;;0.90;99.90;;;;;;5042623;28;20022;-74
2024/01/12 08:37:10;;;;;;;28.67;21.77;;;0.90;99.90;;;;;;5008650;28;20029;-77
2024/01/12 08:39:36;;;;;;;23.80;21.15;;;1.00;99.90;;;;;;5039733;28;20081;-75
2024/01/12 08:42:02;;;;;;;25.75;21.60;;;1.20;99.90;;;;;;5024250;28;20184;-76
2024/01/12 08:44:28;;;;;;;37.20;23.70;;;1.00;99.90;;;;;;5037876;28;20029;-76
2024/01/12 08:46:54;;;;;;;27.88;19.67;;;1.00;99.90;;;;;;5014272;28;20025;-76
2024/01/12 08:49:21;;;;;;;25.17;19.73;;;1.00;99.90;;;;;;5017849;28;20037;-74
2024/01/12 08:51:48;;;;;;;36.47;21.60;;;1.10;99.90;;;;;;5022653;28;20358;-74
2024/01/12 08:54:14;;;;;;;21.80;19.58;;;1.10;99.90;;;;;;5024106;28;20025;-74
2024/01/12 08:56:41;;;;;;;32.88;19.50;;;1.10;99.90;;;;;;5040259;28;20041;-72
2024/01/12 08:59:08;;;;;;;27.73;17.98;;;1.10;99.90;;;;;;5038817;28;20305;-72
2024/01/12 09:01:34;;;;;;;31.50;20.27;;;1.20;99.90;;;;;;5041649;28;20033;-73
2024/01/12 09:04:03;;;;;;;21.73;15.52;;;1.30;99.90;;;;;;5023884;28;20099;-72
2024/01/12 09:06:29;;;;;;;26.23;16.80;;;1.30;99.90;;;;;;5024655;28;20067;-73
2024/01/12 09:08:55;;;;;;;22.73;15.80;;;1.40;99.90;;;;;;5041155;28;20029;-72
2024/01/12 09:11:21;;;;;;;20.77;18.80;;;1.40;99.90;;;;;;4990491;28;20222;-73
2024/01/12 09:13:48;;;;;;;20.63;15.85;;;1.50;99.90;;;;;;5008298;28;20299;-71
2024/01/12 09:16:15;;;;;;;18.20;16.30;;;2.40;99.90;;;;;;5024927;28;20184;-72
2024/01/12 09:18:43;;;;;;;24.40;16.17;;;1.60;99.90;;;;;;5024491;28;20021;-73
2024/01/12 09:21:14;;;;;;;18.40;16.55;;;1.70;99.90;;;;;;5044610;28;20222;-73
2024/01/12 09:23:41;;;;;;;27.50;17.67;;;2.00;99.90;;;;;;5027202;28;20035;-73
2024/01/12 09:26:09;;;;;;;22.98;16.95;;;1.80;99.90;;;;;;5026924;28;20033;-72
2024/01/12 09:28:37;;;;;;;24.25;18.52;;;1.30;99.90;;;;;;5026027;28;20374;-72
2024/01/12 09:31:03;;;;;;;22.85;16.95;;;1.80;99.90;;;;;;5045066;28;20033;-72
2024/01/12 09:33:29;;;;;;;29.02;20.77;;;1.80;99.90;;;;;;5011064;28;20088;-72
2024/01/12 09:35:55;;;;;;;19.08;17.05;;;1.90;99.90;;;;;;5043988;28;20033;-72
2024/01/12 09:38:21;;;;;;;23.95;18.98;;;1.90;99.90;;;;;;5026488;28;20029;-72
2024/01/12 09:40:47;;;;;;;22.98;19.08;;;1.90;99.90;;;;;;5044853;28;20224;-72
2024/01/12 09:43:14;;;;;;;26.77;19.23;;;1.90;99.90;;;;;;5027038;28;20021;-72
2024/01/12 09:45:44;;;;;;;21.60;19.17;;;2.10;99.90;;;;;;5044715;28;20333;-73
2024/01/12 09:48:11;;;;;;;21.40;16.20;;;2.10;99.90;;;;;;5024586;28;20061;-73
2024/01/12 09:50:38;;;;;;;29.45;17.58;;;2.30;99.90;;;;;;5020369;28;20037;-72
2024/01/12 09:53:06;;;;;;;23.55;15.85;;;2.10;99.90;;;;;;5039760;28;20333;-71
2024/01/12 09:55:32;;;;;;;22.02;15.80;;;2.20;99.90;;;;;;5005850;28;20037;-71
2024/01/12 09:57:59;;;;;;;17.45;12.77;;;2.20;99.90;;;;;;5018349;28;20029;-73
2024/01/12 10:00:26;;;;;;;19.45;13.82;;;2.20;99.90;;;;;;5042319;28;20026;-72
2024/01/12 10:02:55;;;;;;;19.33;13.63;;;2.20;99.90;;;;;;5041710;28;20092;-72
2024/01/12 10:05:22;;;;;;;20.27;15.88;;;2.30;99.90;;;;;;5042393;28;20064;-72
2024/01/12 10:07:48;;;;;;;16.73;14.68;;;2.30;99.90;;;;;;5040444;28;20288;-72
2024/01/12 10:10:13;;;;;;;38.15;16.17;;;2.40;99.90;;;;;;5025224;28;20028;-73
2024/01/12 10:12:39;;;;;;;16.38;14.77;;;2.50;99.90;;;;;;5037594;28;20025;-72
2024/01/12 10:15:10;;;;;;;28.02;14.63;;;2.50;99.90;;;;;;5024712;28;20021;-72
2024/01/12 10:17:36;;;;;;;24.83;17.23;;;2.50;99.90;;;;;;5006676;28;20097;-72
2024/01/12 10:20:04;;;;;;;15.65;13.70;;;2.50;99.90;;;;;;5024340;28;20041;-72
2024/01/12 10:22:31;;;;;;;16.27;13.65;;;2.60;99.90;;;;;;5024141;28;20037;-72
2024/01/12 10:25:03;;;;;;;24.52;14.93;;;2.60;99.90;;;;;;5024417;28;20384;-73
2024/01/12 10:27:29;;;;;;;16.73;13.38;;;2.50;99.90;;;;;;5023638;28;20323;-73
2024/01/12 10:29:58;;;;;;;13.80;12.23;;;2.40;99.90;;;;;;5025647;28;20032;-72
2024/01/12 10:32:25;;;;;;;11.87;10.77;;;2.50;99.90;;;;;;5016865;28;20016;-73
2024/01/12 10:34:52;;;;;;;14.45;11.90;;;2.60;99.90;;;;;;5041681;28;20028;-72
2024/01/12 10:37:19;;;;;;;21.17;13.50;;;2.70;99.90;;;;;;5042310;28;20307;-72
2024/01/12 10:39:49;;;;;;;13.63;12.13;;;2.70;99.90;;;;;;5022560;28;20018;-73
2024/01/12 10:42:16;;;;;;;31.20;13.88;;;2.60;99.90;;;;;;5022105;28;20029;-73
2024/01/12 10:44:43;;;;;;;29.10;14.25;;;2.60;99.90;;;;;;5041648;28;20045;-72
2024/01/12 10:47:17;;;;;;;16.90;12.55;;;3.00;99.90;;;;;;5041588;28;20029;-72
2024/01/12 10:49:50;;;;;;;20.05;13.27;;;2.70;99.90;;;;;;5042276;28;20036;-71
2024/01/12 10:52:23;;;;;;;17.50;11.95;;;2.60;99.90;;;;;;5008209;28;20044;-74
2024/01/12 10:54:59;;;;;;;25.30;16.73;;;2.60;99.90;;;;;;5041529;28;20022;-73
2024/01/12 10:57:26;;;;;;;27.65;16.70;;;2.70;99.90;;;;;;5025324;28;20112;-72
2024/01/12 10:59:53;;;;;;;23.00;16.73;;;2.70;99.90;;;;;;5018593;28;20013;-72
2024/01/12 11:02:20;;;;;;;24.58;13.15;;;2.70;99.90;;;;;;5042469;28;20032;-72
2024/01/12 11:04:46;;;;;;;20.52;14.32;;;2.80;99.90;;;;;;5024711;28;20507;-73
2024/01/12 11:07:14;;;;;;;26.80;13.02;;;2.90;99.90;;;;;;5040404;28;20026;-71
2024/01/12 11:09:40;;;;;;;19.20;12.05;;;3.00;99.90;;;;;;5039746;28;20021;-72
2024/01/12 11:12:12;;;;;;;23.20;14.13;;;3.00;99.90;;;;;;5023711;28;20025;-71
2024/01/12 11:14:40;;;;;;;17.90;14.23;;;2.80;99.90;;;;;;5007254;28;20028;-73
2024/01/12 11:17:06;;;;;;;25.15;15.23;;;2.90;99.90;;;;;;5023268;28;20324;-72
2024/01/12 11:19:32;;;;;;;24.70;13.63;;;3.00;99.90;;;;;;5036810;28;20056;-72
2024/01/12 11:22:09;;;;;;;19.48;12.30;;;3.20;99.90;;;;;;5038621;28;20029;-73
2024/01/12 11:24:44;;;;;;;20.73;16.55;;;3.10;99.90;;;;;;5040553;28;20033;-72
2024/01/12 11:27:13;;;;;;;24.58;13.88;;;3.20;99.90;;;;;;5023074;28;20037;-71
2024/01/12 11:29:40;;;;;;;18.90;14.00;;;3.30;99.90;;;;;;5039552;28;20049;-72
2024/01/12 11:32:06;;;;;;;22.73;16.13;;;3.20;99.90;;;;;;5041172;28;20047;-73
2024/01/12 11:34:37;;;;;;;17.23;13.68;;;3.20;99.90;;;;;;5006714;28;20013;-74
2024/01/12 11:37:08;;;;;;;14.98;12.75;;;3.10;99.90;;;;;;5037168;28;20450;-73
2024/01/12 11:39:38;;;;;;;27.40;15.10;;;3.00;99.90;;;;;;5020228;28;20389;-74
2024/01/12 11:42:05;;;;;;;16.35;13.20;;;3.00;99.90;;;;;;5039292;28;20029;-72
2024/01/12 11:44:35;;;;;;;21.48;13.35;;;3.00;99.90;;;;;;5021170;28;20048;-72
2024/01/12 11:47:08;;;;;;;28.17;20.35;;;3.30;99.90;;;;;;5035025;28;20307;-72
2024/01/12 11:49:34;;;;;;;20.13;14.20;;;3.10;99.90;;;;;;5022268;28;20087;-74
2024/01/12 11:52:04;;;;;;;29.33;21.30;;;3.00;99.90;;;;;;5022715;28;20090;-73
2024/01/12 11:54:30;;;;;;;22.77;15.32;;;3.00;99.90;;;;;;5022394;28;20048;-73
2024/01/12 11:56:56;;;;;;;21.17;18.02;;;2.90;99.90;;;;;;5006486;28;20326;-73
2024/01/12 11:59:22;;;;;;;46.17;34.63;;;2.90;99.90;;;;;;5022010;28;20365;-73
2024/01/12 12:01:48;;;;;;;30.88;14.55;;;2.90;99.90;;;;;;5024166;28;20026;-78
2024/01/12 12:04:17;;;;;;;20.77;12.75;;;3.10;99.90;;;;;;5040464;28;20368;-71
2024/01/12 12:06:46;;;;;;;16.02;13.23;;;3.10;99.90;;;;;;5040077;28;20036;-71
2024/01/12 12:09:12;;;;;;;16.63;12.05;;;3.20;99.90;;;;;;5023066;28;20029;-71
2024/01/12 12:11:38;;;;;;;18.58;11.52;;;3.20;99.90;;;;;;5022393;28;20068;-72
2024/01/12 12:14:04;;;;;;;18.00;12.05;;;3.30;99.90;;;;;;5022730;28;20026;-72
2024/01/12 12:16:30;;;;;;;14.60;12.95;;;3.20;99.90;;;;;;5039147;28;20028;-72
2024/01/12 12:18:56;;;;;;;15.45;9.35;;;3.10;99.90;;;;;;5040247;28;20041;-71
2024/01/12 12:21:22;;;;;;;23.15;12.73;;;3.10;99.90;;;;;;5008535;28;20079;-72
2024/01/12 12:23:48;;;;;;;17.08;11.85;;;3.00;99.90;;;;;;5041856;28;20044;-71
2024/01/12 12:26:14;;;;;;;24.73;13.48;;;3.30;99.90;;;;;;5008005;28;20030;-72
2024/01/12 12:28:40;;;;;;;16.13;11.50;;;2.90;99.90;;;;;;4989798;28;20032;-70
2024/01/12 12:31:08;;;;;;;20.02;14.48;;;2.70;99.90;;;;;;5040625;28;20055;-71
2024/01/12 12:33:33;;;;;;;19.08;13.50;;;2.70;99.90;;;;;;5007154;28;20042;-71